.
WxDataArchive / Data Records for 2013-05-27
2013-05-26 May 2013 2013-05-28

Data Records for Monday, 27 May 2013

Time	Temp	Chill	HIndex	Humid	Dewpt	 Wind 	HiWind	WindDir	Rain 	Barom 
-----	----	-----	------	-----	-----	------	------	-------	-----	----- 
00:00	61.5	61.5	61.5	31	30.6	1	3	112	0.00	30.202 
00:05	61.5	61.5	61.5	32	31.4	0	2	112	0.00	30.202 
00:10	61.3	61.3	61.3	33	32.0	1	2	112	0.00	30.202 
00:15	61.2	61.2	61.2	33	31.9	1	4	112	0.00	30.204 
00:20	61.0	61.0	61.0	34	32.4	0	2	112	0.00	30.204 
00:25	60.9	60.9	60.9	34	32.3	1	2	112	0.00	30.204 
00:30	60.9	60.9	60.9	34	32.3	0	2	112	0.00	30.202 
00:35	60.9	60.9	60.9	33	31.6	1	3	112	0.00	30.202 
00:40	60.9	60.9	60.9	33	31.6	0	1	112	0.00	30.202 
00:45	60.9	60.9	60.9	35	33.1	0	1	112	0.00	30.205 
00:50	60.7	60.7	60.7	36	33.6	0	0	---	0.00	30.205 
00:55	60.5	60.5	60.5	39	35.4	0	0	---	0.00	30.205 
01:00	60.4	60.4	60.4	41	36.6	0	1	112	0.00	30.198 
01:05	60.1	60.1	60.1	42	36.9	0	2	112	0.00	30.198 
01:10	59.6	59.6	59.6	42	36.5	0	1	112	0.00	30.198 
01:15	59.5	59.5	59.5	42	36.4	1	3	112	0.00	30.188 
01:20	59.3	59.3	59.3	41	35.6	1	3	112	0.00	30.188 
01:25	59.3	59.3	59.3	40	35.0	1	5	112	0.00	30.188 
01:30	59.3	59.3	59.3	40	35.0	1	3	90	0.00	30.180 
01:35	59.2	59.2	59.2	40	34.9	0	2	90	0.00	30.180 
01:40	59.2	59.2	59.2	40	34.9	1	4	90	0.00	30.180 
01:45	59.2	59.2	59.2	40	34.9	1	3	90	0.00	30.184 
01:50	59.2	59.2	59.2	40	34.9	1	3	90	0.00	30.184 
01:55	59.2	59.2	59.2	41	35.5	1	3	90	0.00	30.184 
02:00	59.2	59.2	59.2	41	35.5	1	5	90	0.00	30.179 
02:05	59.2	59.2	59.2	40	34.9	1	4	90	0.00	30.179 
02:10	59.2	59.2	59.2	40	34.9	1	3	90	0.00	30.179 
02:15	59.2	59.2	59.2	39	34.3	1	4	90	0.00	30.172 
02:20	59.3	59.3	59.3	39	34.3	0	2	90	0.00	30.172 
02:25	59.3	59.3	59.3	38	33.7	1	4	90	0.00	30.172 
02:30	59.3	59.3	59.3	38	33.7	1	3	90	0.00	30.172 
02:35	59.3	59.3	59.3	38	33.7	1	3	90	0.00	30.172 
02:40	59.3	59.3	59.3	37	33.0	1	3	90	0.00	30.172 
02:45	59.3	59.3	59.3	36	32.4	1	4	90	0.00	30.166 
02:50	59.3	59.3	59.3	36	32.4	1	3	90	0.00	30.166 
02:55	59.3	59.3	59.3	36	32.4	0	2	90	0.00	30.166 
03:00	59.3	59.3	59.3	36	32.4	0	2	90	0.00	30.167 
03:05	59.3	59.3	59.3	35	31.7	1	4	90	0.00	30.167 
03:10	59.3	59.3	59.3	36	32.4	1	4	90	0.00	30.167 
03:15	59.3	59.3	59.3	35	31.7	1	3	90	0.00	30.169 
03:20	59.3	59.3	59.3	35	31.7	1	3	90	0.00	30.169 
03:25	59.5	59.5	59.5	35	31.8	0	3	90	0.00	30.169 
03:30	59.3	59.3	59.3	35	31.7	1	3	90	0.00	30.168 
03:35	59.3	59.3	59.3	36	32.4	1	3	90	0.00	30.168 
03:40	59.3	59.3	59.3	36	32.4	0	2	90	0.00	30.168 
03:45	59.2	59.2	59.2	38	33.6	0	2	90	0.00	30.169 
03:50	59.0	59.0	59.0	38	33.4	0	1	90	0.00	30.169 
03:55	58.9	58.9	58.9	38	33.3	0	1	90	0.00	30.169 
04:00	58.7	58.7	58.7	38	33.2	0	1	90	0.00	30.170 
04:05	58.7	58.7	58.7	39	33.8	0	2	90	0.00	30.170 
04:10	58.6	58.6	58.6	39	33.7	0	2	90	0.00	30.170 
04:15	58.4	58.4	58.4	40	34.2	0	3	90	0.00	30.174 
04:20	58.4	58.4	58.4	40	34.2	0	1	90	0.00	30.174 
04:25	58.3	58.3	58.3	41	34.7	0	1	90	0.00	30.174 
04:30	58.1	58.1	58.1	44	36.3	0	1	90	0.00	30.177 
04:35	57.8	57.8	57.8	47	37.7	0	1	90	0.00	30.177 
04:40	57.3	57.3	57.3	50	38.8	0	1	90	0.00	30.177 
04:45	56.6	56.6	56.6	54	40.1	1	3	90	0.00	30.174 
04:50	55.9	55.9	55.9	56	40.4	0	3	90	0.00	30.174 
04:55	55.4	55.4	55.4	57	40.4	0	2	90	0.01	30.174 
05:00	55.0	55.0	55.0	60	41.4	0	2	90	0.00	30.179 
05:05	54.7	54.7	54.7	62	41.9	0	1	90	0.00	30.179 
05:10	54.2	54.2	54.2	62	41.5	0	1	90	0.00	30.179 
05:15	53.9	53.9	53.9	63	41.6	0	2	90	0.00	30.182 
05:20	53.8	53.8	53.8	64	41.9	0	2	90	0.00	30.182 
05:25	53.6	53.6	53.6	65	42.1	0	1	90	0.00	30.182 
05:30	53.5	53.5	53.5	67	42.8	0	3	90	0.00	30.185 
05:35	53.2	53.2	53.2	70	43.7	0	2	90	0.01	30.185 
05:40	52.8	52.8	52.8	73	44.4	0	2	90	0.00	30.185 
05:45	52.5	52.5	52.5	75	44.8	0	2	90	0.00	30.190 
05:50	52.0	52.0	52.0	77	45.0	1	3	90	0.01	30.190 
05:55	51.6	51.6	51.6	78	45.0	1	4	90	0.00	30.190 
06:00	51.3	51.3	51.3	81	45.7	1	3	90	0.02	30.188 
06:05	51.0	51.0	51.0	83	46.0	0	2	90	0.00	30.188 
06:10	50.8	50.8	50.8	84	46.1	1	2	90	0.01	30.188 
06:15	50.5	50.5	50.5	85	46.2	1	3	90	0.01	30.178 
06:20	50.4	50.4	50.4	86	46.4	1	2	90	0.00	30.178 
06:25	50.2	50.2	50.2	87	46.5	1	2	90	0.01	30.178 
06:30	50.1	50.1	50.1	88	46.7	1	3	90	0.01	30.182 
06:35	50.1	50.1	50.1	88	46.7	1	3	90	0.00	30.182 
06:40	49.9	49.9	49.9	88	46.5	1	4	112	0.01	30.182 
06:45	49.9	49.9	49.9	89	46.8	2	4	112	0.01	30.180 
06:50	49.9	49.9	49.9	89	46.8	1	3	112	0.00	30.180 
06:55	49.9	49.9	49.9	90	47.1	2	5	112	0.01	30.180 
07:00	49.8	49.8	49.8	90	47.0	2	4	90	0.01	30.178 
07:05	49.8	49.8	49.8	90	47.0	1	4	112	0.01	30.178 
07:10	49.8	49.8	49.8	91	47.3	1	3	112	0.01	30.178 
07:15	49.8	49.8	49.8	91	47.3	1	2	315	0.00	30.183 
07:20	49.8	49.8	49.8	91	47.3	1	2	315	0.00	30.183 
07:25	49.8	49.8	49.8	92	47.6	0	2	315	0.00	30.183 
07:30	49.9	49.9	49.9	92	47.7	1	3	315	0.01	30.190 
07:35	49.9	49.9	49.9	92	47.7	0	2	338	0.00	30.190 
07:40	49.9	49.9	49.9	92	47.7	1	3	135	0.00	30.190 
07:45	49.9	49.9	49.9	92	47.7	0	2	135	0.01	30.196 
07:50	49.9	49.9	49.9	92	47.7	1	3	135	0.00	30.196 
07:55	50.1	50.1	50.1	92	47.9	1	4	112	0.01	30.196 
08:00	50.2	50.2	50.2	92	48.0	1	3	112	0.00	30.186 
08:05	50.1	50.1	50.1	92	47.9	1	7	112	0.00	30.186 
08:10	50.2	50.2	50.2	92	48.0	1	4	68	0.00	30.186 
08:15	50.2	50.2	50.2	92	48.0	0	2	202	0.01	30.187 
08:20	50.2	50.2	50.2	92	48.0	1	2	202	0.00	30.187 
08:25	50.4	50.4	50.4	92	48.2	2	4	112	0.00	30.187 
08:30	50.4	50.4	50.4	92	48.2	1	3	112	0.01	30.185 
08:35	50.4	50.4	50.4	92	48.2	1	4	112	0.00	30.185 
08:40	50.5	50.5	50.5	92	48.3	1	4	90	0.01	30.185 
08:45	50.5	50.5	50.5	91	48.0	2	5	90	0.00	30.181 
08:50	50.5	50.5	50.5	92	48.3	1	3	90	0.00	30.181 
08:55	50.5	50.5	50.5	92	48.3	1	4	90	0.02	30.181 
09:00	50.5	50.5	50.5	92	48.3	1	3	135	0.01	30.177 
09:05	50.7	50.7	50.7	92	48.5	1	3	112	0.01	30.177 
09:10	50.5	50.5	50.5	92	48.3	2	5	90	0.01	30.177 
09:15	50.5	50.5	50.5	92	48.3	1	3	90	0.02	30.181 
09:20	50.5	50.5	50.5	92	48.3	2	5	90	0.01	30.181 
09:25	50.5	50.5	50.5	92	48.3	2	6	90	0.01	30.181 
09:30	50.4	50.4	50.4	92	48.2	1	4	90	0.01	30.178 
09:35	50.4	50.4	50.4	92	48.2	1	4	112	0.01	30.178 
09:40	50.4	50.4	50.4	92	48.2	2	5	112	0.01	30.178 
09:45	50.4	50.4	50.4	92	48.2	2	5	68	0.00	30.168 
09:50	50.4	50.4	50.4	92	48.2	1	4	90	0.00	30.168 
09:55	50.4	50.4	50.4	92	48.2	2	6	90	0.00	30.168 
10:00	50.4	50.4	50.4	92	48.2	2	5	68	0.00	30.166 
10:05	50.5	50.5	50.5	92	48.3	2	6	68	0.00	30.166 
10:10	50.7	50.7	50.7	92	48.5	2	6	68	0.00	30.166 
10:15	51.0	51.0	51.0	92	48.8	1	4	90	0.00	30.154 
10:20	51.3	51.3	51.3	92	49.1	2	9	90	0.00	30.154 
10:25	51.4	51.4	51.4	92	49.2	2	9	90	0.00	30.154 
10:30	51.6	51.6	51.6	91	49.1	3	6	112	0.00	30.148 
10:35	51.9	51.9	51.9	91	49.4	3	9	112	0.00	30.148 
10:40	52.2	52.2	52.2	90	49.4	2	5	112	0.00	30.148 
10:45	52.5	52.5	52.5	89	49.4	1	9	112	0.00	30.139 
10:50	52.5	52.5	52.5	88	49.0	3	9	90	0.00	30.139 
10:55	52.6	52.6	52.6	87	48.8	3	9	90	0.00	30.139 
11:00	52.8	52.8	52.8	87	49.0	3	7	112	0.00	30.135 
11:05	52.8	52.8	52.8	86	48.7	3	9	90	0.00	30.135 
11:10	53.1	53.1	53.1	86	49.0	3	9	90	0.00	30.135 
11:15	53.3	53.3	53.3	86	49.2	2	5	90	0.00	30.127 
11:20	53.5	53.5	53.5	86	49.4	3	8	90	0.00	30.127 
11:25	53.8	53.8	53.8	86	49.7	2	5	68	0.00	30.127 
11:30	53.9	53.9	53.9	85	49.5	4	11	90	0.00	30.117 
11:35	54.1	54.1	54.1	84	49.4	3	7	112	0.00	30.117 
11:40	54.2	54.2	54.2	84	49.5	3	10	90	0.00	30.117 
11:45	54.5	54.5	54.5	84	49.8	2	7	90	0.00	30.118 
11:50	54.5	54.5	54.5	82	49.1	5	13	90	0.00	30.118 
11:55	54.8	54.8	54.8	80	48.7	3	11	90	0.00	30.118 
12:00	55.0	55.0	55.0	81	49.3	4	12	90	0.00	30.108 
12:05	55.3	55.3	55.3	82	49.9	3	7	90	0.00	30.108 
12:10	55.7	55.7	55.7	82	50.3	2	7	90	0.00	30.108 
12:15	55.9	55.9	55.9	81	50.2	3	9	90	0.00	30.108 
12:20	56.0	56.0	56.0	79	49.6	5	14	90	0.00	30.108 
12:25	56.5	56.5	56.5	80	50.4	2	7	90	0.00	30.108 
12:30	56.5	56.5	56.5	78	49.7	4	13	90	0.00	30.102 
12:35	56.0	56.0	56.0	79	49.6	5	11	90	0.00	30.102 
12:40	55.9	55.9	55.9	80	49.8	3	7	90	0.00	30.102 
12:45	55.9	55.9	55.9	80	49.8	3	7	90	0.00	30.092 
12:50	55.9	55.9	55.9	81	50.2	3	9	112	0.00	30.092 
12:55	56.2	56.2	56.2	81	50.4	4	10	90	0.00	30.092 
13:00	56.5	56.5	56.5	80	50.4	4	9	90	0.00	30.084 
13:05	56.6	56.6	56.6	80	50.5	4	9	112	0.00	30.084 
13:10	56.6	56.6	56.6	80	50.5	2	6	112	0.00	30.084 
13:15	56.7	56.7	56.7	80	50.6	1	4	112	0.00	30.098 
13:20	56.9	56.9	56.9	80	50.8	0	5	45	0.00	30.098 
13:25	56.9	56.9	56.9	81	51.1	1	3	45	0.00	30.098 
13:30	57.0	57.0	57.0	82	51.6	0	1	45	0.00	30.117 
13:35	56.9	56.9	56.9	84	52.1	2	4	45	0.01	30.117 
13:40	56.7	56.7	56.7	85	52.2	2	3	68	0.00	30.117 
13:45	56.7	56.7	56.7	86	52.6	2	5	68	0.00	30.084 
13:50	56.9	56.9	56.9	87	53.1	2	5	45	0.00	30.084 
13:55	57.0	57.0	57.0	88	53.5	2	6	68	0.00	30.084 
14:00	57.2	57.2	57.2	88	53.7	3	7	68	0.00	30.069 
14:05	57.2	57.2	57.2	88	53.7	2	4	90	0.01	30.069 
14:10	57.3	57.3	57.3	88	53.8	1	4	90	0.00	30.069 
14:15	57.0	57.0	57.0	88	53.5	3	10	90	0.00	30.069 
14:20	57.0	57.0	57.0	88	53.5	2	5	90	0.01	30.069 
14:25	57.0	57.0	57.0	88	53.5	3	7	90	0.01	30.069 
14:30	57.0	57.0	57.0	89	53.8	2	5	90	0.01	30.052 
14:35	56.9	56.9	56.9	89	53.7	2	5	90	0.01	30.052 
14:40	56.7	56.7	56.7	90	53.8	1	9	90	0.01	30.052 
14:45	56.7	56.7	56.7	91	54.1	2	4	90	0.00	30.044 
14:50	56.9	56.9	56.9	91	54.3	2	5	90	0.00	30.044 
14:55	56.9	56.9	56.9	91	54.3	2	6	90	0.00	30.044 
15:00	56.9	56.9	56.9	91	54.3	3	6	90	0.00	30.045 
15:05	56.9	56.9	56.9	91	54.3	2	5	68	0.00	30.045 
15:10	57.0	57.0	57.0	91	54.4	2	5	68	0.00	30.045 
15:15	57.2	57.2	57.2	91	54.6	2	6	68	0.00	30.039 
15:20	57.3	57.3	57.3	91	54.7	2	9	90	0.00	30.039 
15:25	57.2	57.2	57.2	91	54.6	2	5	90	0.00	30.039 
15:30	56.9	56.9	56.9	90	54.0	4	7	90	0.00	30.036 
15:35	56.9	56.9	56.9	90	54.0	3	6	90	0.00	30.036 
15:40	56.9	56.9	56.9	90	54.0	2	5	68	0.00	30.036 
15:45	57.0	57.0	57.0	90	54.1	2	6	68	0.00	30.035 
15:50	57.0	57.0	57.0	91	54.4	1	3	90	0.02	30.035 
15:55	56.9	56.9	56.9	91	54.3	2	5	90	0.01	30.035 
16:00	56.7	56.7	56.7	91	54.1	3	4	90	0.04	30.024 
16:05	56.6	56.6	56.6	92	54.3	2	7	68	0.01	30.024 
16:10	56.5	56.5	56.5	92	54.2	1	3	90	0.00	30.024 
16:15	56.5	56.5	56.5	92	54.2	2	5	90	0.01	30.025 
16:20	56.5	56.5	56.5	93	54.5	2	4	90	0.00	30.025 
16:25	56.5	56.5	56.5	93	54.5	2	5	90	0.00	30.025 
16:30	56.3	56.3	56.3	93	54.3	2	4	68	0.03	30.015 
16:35	56.3	56.3	56.3	93	54.3	2	6	90	0.01	30.015 
16:40	56.2	56.2	56.2	93	54.2	2	5	90	0.05	30.015 
16:45	56.2	56.2	56.2	93	54.2	2	5	90	0.01	30.014 
16:50	56.0	56.0	56.0	94	54.3	3	7	112	0.00	30.014 
16:55	56.2	56.2	56.2	94	54.5	2	4	112	0.00	30.014 
17:00	56.2	56.2	56.2	94	54.5	2	5	90	0.00	30.005 
17:05	56.0	56.0	56.0	94	54.3	3	7	112	0.00	30.005 
17:10	55.9	55.9	55.9	94	54.2	2	5	90	0.00	30.005 
17:15	55.9	55.9	55.9	94	54.2	4	7	90	0.01	29.998 
17:20	55.9	55.9	55.9	94	54.2	4	10	90	0.01	29.998 
17:25	55.9	55.9	55.9	94	54.2	3	9	90	0.00	29.998 
17:30	55.7	55.7	55.7	94	54.0	2	5	90	0.01	29.992 
17:35	55.7	55.7	55.7	94	54.0	3	9	90	0.02	29.992 
17:40	55.7	55.7	55.7	95	54.3	2	9	90	0.00	29.992 
17:45	55.7	55.7	55.7	95	54.3	2	6	90	0.00	29.990 
17:50	55.6	55.6	55.6	95	54.2	3	9	90	0.01	29.990 
17:55	55.6	55.6	55.6	95	54.2	3	6	68	0.02	29.990 
18:00	55.4	55.4	55.4	95	54.0	4	11	90	0.02	29.982 
18:05	55.4	55.4	55.4	95	54.0	3	9	90	0.02	29.982 
18:10	55.3	55.3	55.3	95	53.9	3	6	90	0.00	29.982 
18:15	55.3	55.3	55.3	95	53.9	3	6	68	0.00	29.983 
18:20	55.1	55.1	55.1	95	53.7	4	7	90	0.00	29.983 
18:25	55.1	55.1	55.1	95	53.7	3	7	68	0.00	29.983 
18:30	55.1	55.1	55.1	95	53.7	2	7	68	0.01	29.976 
18:35	55.1	55.1	55.1	95	53.7	3	9	90	0.01	29.976 
18:40	55.1	55.1	55.1	95	53.7	4	10	68	0.01	29.976 
18:45	55.1	55.1	55.1	95	53.7	4	8	90	0.00	29.962 
18:50	55.1	55.1	55.1	95	53.7	3	7	90	0.00	29.962 
18:55	55.1	55.1	55.1	95	53.7	3	7	90	0.00	29.962 
19:00	55.3	55.3	55.3	95	53.9	2	6	112	0.00	29.963 
19:05	55.1	55.1	55.1	95	53.7	4	7	90	0.00	29.963 
19:10	55.3	55.3	55.3	95	53.9	2	7	68	0.00	29.963 
19:15	55.3	55.3	55.3	95	53.9	2	5	90	0.00	29.958 
19:20	55.3	55.3	55.3	95	53.9	4	10	90	0.00	29.958 
19:25	55.3	55.3	55.3	95	53.9	3	6	90	0.00	29.958 
19:30	55.4	55.4	55.4	95	54.0	2	7	90	0.00	29.955 
19:35	55.4	55.4	55.4	95	54.0	2	4	90	0.00	29.955 
19:40	55.6	55.6	55.6	95	54.2	2	7	68	0.00	29.955 
19:45	55.6	55.6	55.6	95	54.2	3	6	90	0.00	29.950 
19:50	55.6	55.6	55.6	95	54.2	2	10	90	0.00	29.950 
19:55	55.6	55.6	55.6	95	54.2	3	10	90	0.00	29.950 
20:00	55.4	55.4	55.4	95	54.0	3	6	90	0.00	29.954 
20:05	55.4	55.4	55.4	95	54.0	2	6	90	0.00	29.954 
20:10	55.6	55.6	55.6	95	54.2	2	5	90	0.00	29.954 
20:15	55.6	55.6	55.6	95	54.2	1	4	90	0.01	29.950 
20:20	55.6	55.6	55.6	95	54.2	2	7	90	0.00	29.950 
20:25	55.4	55.4	55.4	95	54.0	3	7	90	0.02	29.950 
20:30	55.6	55.6	55.6	95	54.2	1	3	90	0.00	29.944 
20:35	55.6	55.6	55.6	95	54.2	1	4	68	0.02	29.944 
20:40	55.6	55.6	55.6	95	54.2	1	2	68	0.02	29.944 
20:45	55.6	55.6	55.6	95	54.2	2	5	68	0.01	29.952 
20:50	55.7	55.7	55.7	95	54.3	1	3	90	0.00	29.952 
20:55	55.7	55.7	55.7	95	54.3	1	3	90	0.03	29.952 
21:00	55.7	55.7	55.7	95	54.3	1	3	90	0.05	29.949 
21:05	55.7	55.7	55.7	95	54.3	1	4	90	0.01	29.949 
21:10	55.7	55.7	55.7	95	54.3	2	4	90	0.00	29.949 
21:15	55.7	55.7	55.7	95	54.3	1	6	90	0.01	29.949 
21:20	55.9	55.9	55.9	95	54.5	1	3	90	0.00	29.949 
21:25	55.9	55.9	55.9	96	54.8	2	5	90	0.01	29.949 
21:30	55.9	55.9	55.9	96	54.8	3	5	90	0.00	29.946 
21:35	55.9	55.9	55.9	96	54.8	1	4	68	0.01	29.946 
21:40	55.9	55.9	55.9	96	54.8	1	4	68	0.01	29.946 
21:45	55.9	55.9	55.9	96	54.8	2	5	68	0.02	29.938 
21:50	55.9	55.9	55.9	96	54.8	2	4	90	0.01	29.938 
21:55	55.9	55.9	55.9	96	54.8	2	4	90	0.00	29.938 
22:00	55.9	55.9	55.9	96	54.8	2	5	90	0.00	29.943 
22:05	55.9	55.9	55.9	96	54.8	2	5	90	0.01	29.943 
22:10	56.0	56.0	56.0	96	54.9	1	4	90	0.01	29.943 
22:15	56.0	56.0	56.0	96	54.9	2	5	68	0.00	29.942 
22:20	56.0	56.0	56.0	96	54.9	0	2	68	0.00	29.942 
22:25	56.0	56.0	56.0	96	54.9	1	3	68	0.00	29.942 
22:30	56.0	56.0	56.0	96	54.9	2	5	68	0.01	29.934 
22:35	56.0	56.0	56.0	96	54.9	1	4	68	0.00	29.934 
22:40	56.2	56.2	56.2	96	55.1	0	3	68	0.01	29.934 
22:45	56.3	56.3	56.3	96	55.2	1	4	68	0.00	29.934 
22:50	56.6	56.6	56.6	96	55.5	1	3	68	0.00	29.934 
22:55	56.6	56.6	56.6	96	55.5	1	3	68	0.00	29.934 
23:00	56.6	56.6	56.6	96	55.5	0	3	68	0.00	29.932 
23:05	56.7	56.7	56.7	96	55.6	1	3	68	0.00	29.932 
23:10	56.7	56.7	56.7	96	55.6	0	1	68	0.00	29.932 
23:15	56.7	56.7	56.7	96	55.6	1	3	68	0.00	29.929 
23:20	56.7	56.7	56.7	96	55.6	1	2	68	0.00	29.929 
23:25	56.9	56.9	56.9	96	55.8	0	2	68	0.00	29.929 
23:30	56.9	56.9	56.9	96	55.8	0	2	68	0.00	29.930 
23:35	56.9	56.9	56.9	96	55.8	0	2	68	0.00	29.930 
23:40	57.0	57.0	57.0	96	55.9	0	3	68	0.00	29.930 
23:45	57.2	57.2	57.2	96	56.1	0	2	68	0.00	29.927 
23:50	57.2	57.2	57.2	96	56.1	0	1	68	0.00	29.927 
23:55	57.2	57.2	57.2	96	56.1	0	1	68	0.00	29.927 

CoCoRaHS
IN-AL-39
A2 Web Hosting
Creative Commons License
GoDaddy
search engine by freefind advanced

loaded 2018-11-16 11:19:58 • last modified 2010-11-18 10:43:29
Privacy PolicyDisclaimer
• wx.awcolley.com is powered by PmWiki v.2002016 •
• all content (unless otherwise noted) © 2018 A W Colley